createdAt,value
2018-07-26T00:01:42.023Z,61.00
2018-07-26T00:04:10.830Z,60.80
2018-07-26T00:09:12.664Z,61.00
2018-07-26T00:11:41.489Z,61.40
2018-07-26T00:14:10.035Z,61.30
2018-07-26T00:16:38.480Z,61.40
2018-07-26T00:19:06.975Z,61.40
2018-07-26T00:21:35.500Z,61.50
2018-07-26T00:24:04.122Z,61.40
2018-07-26T00:26:32.579Z,61.30
2018-07-26T00:29:01.093Z,62.10
2018-07-26T00:31:29.554Z,62.30
2018-07-26T00:33:58.052Z,62.70
2018-07-26T00:36:26.558Z,62.90
2018-07-26T00:38:55.395Z,62.80
2018-07-26T00:41:23.909Z,62.80
2018-07-26T00:43:52.556Z,63.10
2018-07-26T00:46:20.985Z,63.30
2018-07-26T00:48:49.608Z,63.50
2018-07-26T00:51:18.204Z,63.70
2018-07-26T00:53:46.708Z,63.50
2018-07-26T00:56:15.164Z,63.50
2018-07-26T00:58:44.387Z,63.50
2018-07-26T01:01:12.851Z,63.50
2018-07-26T01:03:41.370Z,63.50
2018-07-26T01:06:09.831Z,63.50
2018-07-26T01:08:38.607Z,63.40
2018-07-26T01:11:07.113Z,63.70
2018-07-26T01:13:35.631Z,63.80
2018-07-26T01:16:04.615Z,63.80
2018-07-26T01:18:33.097Z,64.30
2018-07-26T01:21:01.603Z,63.80
2018-07-26T01:23:30.399Z,64.10
2018-07-26T01:25:58.923Z,64.10
2018-07-26T01:28:27.379Z,64.10
2018-07-26T01:30:55.874Z,64.10
2018-07-26T01:33:24.327Z,64.40
2018-07-26T01:35:52.839Z,64.80
2018-07-26T01:38:21.344Z,65.10
2018-07-26T01:40:49.859Z,65.10
2018-07-26T01:43:42.894Z,65.20
2018-07-26T01:46:11.835Z,65.40
2018-07-26T01:48:40.913Z,65.70
2018-07-26T01:51:09.783Z,65.80
2018-07-26T01:53:38.286Z,66.10
2018-07-26T01:56:08.432Z,66.10
2018-07-26T01:58:37.323Z,66.20
2018-07-26T02:01:06.690Z,66.20
2018-07-26T02:03:35.278Z,66.50
2018-07-26T02:06:04.019Z,66.40
2018-07-26T02:08:32.623Z,66.70
2018-07-26T02:11:01.444Z,66.90
2018-07-26T02:13:30.508Z,67.00
2018-07-26T02:15:59.047Z,67.00
2018-07-26T02:18:27.962Z,67.10
2018-07-26T02:20:56.466Z,67.40
2018-07-26T02:23:25.740Z,67.70
2018-07-26T02:25:54.635Z,67.90
2018-07-26T02:28:23.148Z,68.10
2018-07-26T02:30:52.038Z,68.40
2018-07-26T02:33:20.659Z,68.70
2018-07-26T02:35:49.148Z,68.80
2018-07-26T02:38:17.647Z,69.10
2018-07-26T02:40:46.089Z,69.30
2018-07-26T02:43:15.060Z,69.50
2018-07-26T02:45:43.535Z,69.50
2018-07-26T02:48:11.971Z,69.40
2018-07-26T02:50:40.450Z,69.20
2018-07-26T02:53:09.235Z,69.60
2018-07-26T02:55:37.710Z,69.70
2018-07-26T02:58:06.400Z,69.60
2018-07-26T03:00:34.835Z,69.10
2018-07-26T03:03:03.298Z,69.50
2018-07-26T03:05:31.840Z,69.10
2018-07-26T03:08:00.884Z,69.10
2018-07-26T03:10:29.335Z,68.80
2018-07-26T03:12:57.939Z,68.60
2018-07-26T03:15:26.455Z,68.40
2018-07-26T03:17:54.899Z,68.10
2018-07-26T03:20:23.375Z,68.20
2018-07-26T03:22:51.823Z,68.00
2018-07-26T03:25:20.325Z,68.00
2018-07-26T03:27:48.783Z,67.90
2018-07-26T03:30:17.662Z,67.90
2018-07-26T03:32:46.108Z,68.00
2018-07-26T03:35:14.751Z,68.10
2018-07-26T03:37:43.169Z,68.20
2018-07-26T03:40:11.616Z,68.40
2018-07-26T03:42:40.086Z,68.40
2018-07-26T03:45:08.539Z,68.50
2018-07-26T03:47:37.042Z,68.80
2018-07-26T03:50:05.847Z,69.20
2018-07-26T03:52:34.758Z,69.20
2018-07-26T03:55:03.298Z,69.10
2018-07-26T03:57:31.963Z,69.30
2018-07-26T04:00:00.440Z,69.40
2018-07-26T04:02:28.929Z,69.40
2018-07-26T04:04:57.373Z,69.40
2018-07-26T04:07:25.898Z,69.40
2018-07-26T04:09:54.384Z,69.60
2018-07-26T04:12:22.835Z,70.60
2018-07-26T04:14:51.389Z,70.00
2018-07-26T04:17:19.855Z,70.30
2018-07-26T04:19:48.347Z,70.30
2018-07-26T04:22:16.805Z,70.30
2018-07-26T04:27:16.205Z,71.00
2018-07-26T04:29:49.177Z,71.30
2018-07-26T04:32:17.832Z,70.40
2018-07-26T04:34:46.307Z,70.70
2018-07-26T04:37:14.759Z,71.30
2018-07-26T04:39:44.108Z,71.30
2018-07-26T04:42:12.599Z,71.50
2018-07-26T04:44:41.179Z,71.70
2018-07-26T04:47:09.983Z,71.70
2018-07-26T04:49:38.463Z,71.90
2018-07-26T04:52:06.912Z,72.00
2018-07-26T04:54:35.448Z,71.80
2018-07-26T04:57:04.077Z,72.80
2018-07-26T04:59:32.589Z,73.40
2018-07-26T05:02:01.047Z,74.10
2018-07-26T05:04:29.538Z,74.50
2018-07-26T05:06:57.980Z,74.60
2018-07-26T05:09:26.478Z,74.70
2018-07-26T05:11:54.904Z,74.70
2018-07-26T05:14:23.538Z,74.30
2018-07-26T05:16:51.975Z,74.20
2018-07-26T05:21:51.622Z,74.10
2018-07-26T05:24:20.370Z,74.20
2018-07-26T05:26:48.834Z,74.70
2018-07-26T05:29:17.331Z,73.90
2018-07-26T05:31:45.822Z,73.60
2018-07-26T05:34:14.407Z,73.40
2018-07-26T05:36:43.223Z,72.80
2018-07-26T05:39:12.268Z,72.00
2018-07-26T05:41:41.294Z,71.20
2018-07-26T05:44:09.787Z,70.60
2018-07-26T05:46:38.632Z,70.20
2018-07-26T05:49:07.080Z,70.20
2018-07-26T05:51:35.915Z,70.00
2018-07-26T05:54:04.407Z,70.00
2018-07-26T05:56:32.870Z,70.00
2018-07-26T05:59:01.330Z,69.60
2018-07-26T06:01:30.080Z,69.10
2018-07-26T06:03:59.048Z,68.80
2018-07-26T06:06:27.555Z,68.30
2018-07-26T06:08:55.987Z,68.20
2018-07-26T06:11:24.476Z,68.30
2018-07-26T06:16:21.090Z,68.10
2018-07-26T06:18:49.542Z,67.20
2018-07-26T06:21:18.018Z,66.50
2018-07-26T06:23:46.801Z,66.60
2018-07-26T06:26:15.279Z,66.20
2018-07-26T06:28:43.730Z,65.30
2018-07-26T06:31:12.214Z,64.60
2018-07-26T06:33:40.712Z,63.90
2018-07-26T06:36:09.341Z,63.40
2018-07-26T06:38:37.840Z,62.70
2018-07-26T06:41:06.783Z,61.40
2018-07-26T06:43:35.231Z,60.90
2018-07-26T06:46:03.711Z,57.60
2018-07-26T06:48:32.228Z,57.30
2018-07-26T06:51:00.752Z,55.50
2018-07-26T06:53:29.649Z,55.40
2018-07-26T06:55:58.138Z,54.50
2018-07-26T06:58:27.054Z,54.50
2018-07-26T07:00:56.051Z,53.80
2018-07-26T07:03:24.680Z,53.40
2018-07-26T07:05:53.154Z,52.50
2018-07-26T07:08:21.643Z,52.00
2018-07-26T07:10:50.106Z,52.30
2018-07-26T07:13:18.949Z,52.00
2018-07-26T07:15:47.438Z,52.30
2018-07-26T07:18:16.588Z,52.50
2018-07-26T07:20:45.040Z,50.90
2018-07-26T07:23:14.013Z,51.60
2018-07-26T07:25:43.318Z,51.30
2018-07-26T07:28:12.643Z,52.20
2018-07-26T07:30:41.673Z,51.40
2018-07-26T07:33:10.723Z,51.00
2018-07-26T07:35:39.948Z,50.60
2018-07-26T07:38:08.959Z,50.40
2018-07-26T07:40:37.981Z,50.00
2018-07-26T07:43:07.029Z,49.30
2018-07-26T07:45:36.083Z,49.40
2018-07-26T07:48:05.207Z,48.90
2018-07-26T07:50:34.622Z,48.30
2018-07-26T07:53:03.631Z,49.40
2018-07-26T07:55:32.746Z,49.20
2018-07-26T07:58:01.771Z,47.40
2018-07-26T08:00:30.800Z,46.80
2018-07-26T08:02:59.803Z,46.10
2018-07-26T08:05:28.820Z,46.60
2018-07-26T08:07:57.797Z,46.80
2018-07-26T08:10:26.830Z,46.60
2018-07-26T08:12:56.321Z,46.10
2018-07-26T08:15:25.376Z,45.90
2018-07-26T08:17:54.364Z,44.60
2018-07-26T08:20:23.387Z,44.20
2018-07-26T08:22:52.389Z,44.60
2018-07-26T08:25:21.422Z,44.30
2018-07-26T08:27:50.425Z,42.10
2018-07-26T08:30:19.776Z,42.70
2018-07-26T08:32:49.084Z,42.30
2018-07-26T08:35:18.119Z,41.70
2018-07-26T08:37:47.108Z,41.00
2018-07-26T08:40:16.495Z,41.80
2018-07-26T08:42:45.528Z,42.70
2018-07-26T08:45:14.547Z,41.10
2018-07-26T08:47:45.226Z,39.70
2018-07-26T08:50:14.263Z,40.10
2018-07-26T08:52:43.263Z,40.80
2018-07-26T08:55:12.320Z,40.40
2018-07-26T08:57:41.330Z,38.70
2018-07-26T09:00:10.346Z,37.30
2018-07-26T09:02:39.360Z,38.20
2018-07-26T09:05:09.342Z,38.10
2018-07-26T09:07:38.375Z,36.90
2018-07-26T09:10:07.597Z,36.00
2018-07-26T09:12:36.624Z,35.40
2018-07-26T09:15:06.128Z,35.70
2018-07-26T09:17:35.952Z,36.50
2018-07-26T09:20:05.221Z,35.60
2018-07-26T09:22:34.432Z,36.10
2018-07-26T09:25:03.461Z,35.50
2018-07-26T09:27:32.465Z,35.50
2018-07-26T09:30:01.917Z,35.10
2018-07-26T09:32:31.237Z,33.90
2018-07-26T09:35:00.233Z,34.50
2018-07-26T09:37:29.199Z,33.80
2018-07-26T09:39:58.212Z,33.40
2018-07-26T09:42:27.242Z,34.20
2018-07-26T09:44:56.243Z,33.70
2018-07-26T09:49:54.188Z,34.20
2018-07-26T09:52:23.192Z,32.50
2018-07-26T09:54:52.927Z,31.20
2018-07-26T09:57:22.080Z,32.50
2018-07-26T09:59:51.059Z,32.40
2018-07-26T10:02:20.060Z,31.90
2018-07-26T10:04:49.042Z,32.10
2018-07-26T10:07:18.143Z,32.50
2018-07-26T10:09:47.183Z,29.90
2018-07-26T10:12:16.171Z,30.90
2018-07-26T10:14:45.215Z,32.00
2018-07-26T10:17:14.235Z,29.80
2018-07-26T10:19:43.218Z,29.80
2018-07-26T10:22:12.279Z,29.60
2018-07-26T10:24:41.267Z,30.20
2018-07-26T10:27:10.275Z,29.70
2018-07-26T10:29:39.256Z,30.00
2018-07-26T10:32:08.278Z,28.80
2018-07-26T10:34:37.236Z,29.70
2018-07-26T10:37:06.779Z,29.40
2018-07-26T10:39:35.784Z,29.60
2018-07-26T10:42:04.808Z,29.60
2018-07-26T10:44:33.833Z,30.80
2018-07-26T10:47:03.043Z,28.40
2018-07-26T10:49:32.031Z,27.90
2018-07-26T10:52:01.051Z,28.90
2018-07-26T10:54:30.015Z,29.90
2018-07-26T10:56:59.045Z,29.60
2018-07-26T10:59:28.031Z,28.90
2018-07-26T11:01:57.124Z,28.70
2018-07-26T11:04:26.093Z,29.10
2018-07-26T11:06:54.815Z,27.60
2018-07-26T11:09:23.798Z,27.80
2018-07-26T11:11:53.176Z,27.00
2018-07-26T11:14:22.383Z,27.70
2018-07-26T11:16:51.378Z,26.80
2018-07-26T11:19:20.348Z,27.80
2018-07-26T11:21:49.723Z,27.60
2018-07-26T11:24:18.754Z,27.00
2018-07-26T11:26:47.924Z,27.60
2018-07-26T11:29:17.388Z,26.70
2018-07-26T11:31:46.417Z,28.30
2018-07-26T11:34:15.172Z,27.00
2018-07-26T11:36:44.223Z,27.20
2018-07-26T11:39:13.265Z,27.80
2018-07-26T11:41:42.707Z,27.30
2018-07-26T11:44:11.519Z,28.30
2018-07-26T11:46:40.523Z,28.30
2018-07-26T11:49:09.225Z,26.30
2018-07-26T11:51:38.255Z,26.10
2018-07-26T11:54:06.955Z,26.90
2018-07-26T11:56:35.684Z,25.80
2018-07-26T11:59:04.699Z,25.70
2018-07-26T12:01:33.793Z,26.00
2018-07-26T12:04:02.920Z,24.80
2018-07-26T12:06:31.667Z,25.20
2018-07-26T12:09:01.011Z,24.50
2018-07-26T12:11:30.039Z,25.70
2018-07-26T12:13:58.782Z,25.40
2018-07-26T12:16:27.796Z,27.00
2018-07-26T12:18:56.482Z,26.80
2018-07-26T12:21:25.623Z,25.80
2018-07-26T12:23:54.628Z,26.20
2018-07-26T12:26:23.386Z,24.40
2018-07-26T12:28:52.115Z,24.40
2018-07-26T12:31:20.843Z,23.70
2018-07-26T12:33:49.579Z,23.40
2018-07-26T12:36:18.327Z,24.90
2018-07-26T12:38:47.132Z,24.00
2018-07-26T12:41:16.028Z,24.30
2018-07-26T12:43:44.823Z,23.10
2018-07-26T12:46:13.667Z,23.20
2018-07-26T12:48:42.410Z,23.20
2018-07-26T12:51:11.100Z,24.20
2018-07-26T12:53:39.835Z,24.80
2018-07-26T12:56:08.516Z,24.30
2018-07-26T12:58:37.255Z,23.60
2018-07-26T13:01:06.175Z,24.20
2018-07-26T13:03:35.704Z,25.20
2018-07-26T13:06:04.452Z,24.50
2018-07-26T13:08:33.476Z,25.10
2018-07-26T13:11:02.447Z,25.10
2018-07-26T13:13:31.502Z,24.50
2018-07-26T13:16:00.479Z,25.70
2018-07-26T13:18:29.492Z,24.50
2018-07-26T13:20:58.516Z,24.40
2018-07-26T13:23:27.367Z,24.90
2018-07-26T13:25:56.479Z,26.40
2018-07-26T13:28:25.505Z,25.70
2018-07-26T13:30:54.224Z,24.80
2018-07-26T13:33:22.948Z,26.70
2018-07-26T13:35:52.719Z,24.70
2018-07-26T13:38:21.808Z,24.80
2018-07-26T13:40:50.503Z,23.30
2018-07-26T13:43:19.252Z,23.50
2018-07-26T13:45:47.930Z,24.00
2018-07-26T13:48:16.656Z,23.50
2018-07-26T13:50:45.347Z,23.90
2018-07-26T13:53:14.067Z,23.50
2018-07-26T13:55:42.758Z,23.50
2018-07-26T13:58:11.568Z,23.60
2018-07-26T14:00:40.969Z,24.00
2018-07-26T14:03:09.710Z,25.30
2018-07-26T14:05:38.410Z,25.50
2018-07-26T14:08:07.410Z,25.20
2018-07-26T14:10:36.144Z,26.20
2018-07-26T14:13:04.942Z,26.70
2018-07-26T14:15:33.684Z,24.90
2018-07-26T14:18:02.398Z,25.10
2018-07-26T14:20:31.159Z,25.00
2018-07-26T14:22:59.859Z,24.30
2018-07-26T14:25:28.586Z,23.20
2018-07-26T14:27:57.682Z,23.60
2018-07-26T14:30:26.430Z,24.90
2018-07-26T14:35:23.906Z,23.80
2018-07-26T14:37:52.619Z,24.00
2018-07-26T14:40:21.391Z,23.20
2018-07-26T14:42:50.115Z,23.40
2018-07-26T14:45:19.205Z,23.80
2018-07-26T14:47:47.968Z,22.60
2018-07-26T14:50:16.767Z,23.80
2018-07-26T14:52:45.458Z,23.50
2018-07-26T14:55:14.200Z,23.60
2018-07-26T14:57:42.942Z,23.70
2018-07-26T15:00:11.807Z,24.90
2018-07-26T15:02:40.610Z,24.30
2018-07-26T15:05:09.402Z,24.80
2018-07-26T15:07:40.004Z,23.90
2018-07-26T15:10:09.584Z,24.00
2018-07-26T15:12:38.283Z,24.00
2018-07-26T15:15:08.596Z,24.90
2018-07-26T15:17:37.331Z,24.40
2018-07-26T15:20:06.767Z,24.10
2018-07-26T15:22:35.457Z,23.50
2018-07-26T15:25:04.879Z,24.10
2018-07-26T15:27:33.685Z,24.50
2018-07-26T15:30:02.516Z,24.20
2018-07-26T15:32:31.306Z,24.40
2018-07-26T15:35:00.166Z,24.60
2018-07-26T15:37:29.546Z,23.50
2018-07-26T15:39:58.688Z,23.90
2018-07-26T15:42:28.827Z,25.50
2018-07-26T15:44:57.857Z,25.00
2018-07-26T15:47:27.212Z,25.50
2018-07-26T15:49:56.288Z,25.70
2018-07-26T15:52:25.343Z,25.10
2018-07-26T15:54:54.082Z,24.60
2018-07-26T15:57:23.137Z,24.80
2018-07-26T15:59:52.659Z,25.10
2018-07-26T16:02:21.655Z,24.40
2018-07-26T16:04:50.706Z,24.20
2018-07-26T16:09:48.443Z,24.10
2018-07-26T16:12:17.439Z,24.90
2018-07-26T16:14:46.663Z,23.90
2018-07-26T16:17:15.689Z,24.40
2018-07-26T16:19:44.707Z,25.10
2018-07-26T16:22:13.717Z,25.90
2018-07-26T16:24:43.071Z,25.30
2018-07-26T16:27:12.105Z,25.00
2018-07-26T16:29:41.148Z,24.30
2018-07-26T16:32:10.389Z,25.00
2018-07-26T16:34:41.780Z,25.80
2018-07-26T16:37:10.755Z,25.50
2018-07-26T16:39:39.774Z,25.70
2018-07-26T16:42:08.758Z,25.20
2018-07-26T16:44:37.791Z,25.60
2018-07-26T16:47:06.810Z,25.30
2018-07-26T16:49:35.863Z,26.50
2018-07-26T16:52:04.901Z,26.40
2018-07-26T16:54:33.937Z,26.90
2018-07-26T16:57:03.336Z,27.00
2018-07-26T17:02:01.314Z,27.30
2018-07-26T17:04:30.381Z,27.40
2018-07-26T17:06:59.380Z,27.90
2018-07-26T17:09:28.427Z,27.90
2018-07-26T17:11:57.439Z,27.80
2018-07-26T17:14:26.504Z,28.10
2018-07-26T17:16:55.527Z,28.30
2018-07-26T17:19:24.559Z,28.70
2018-07-26T17:21:53.565Z,28.30
2018-07-26T17:24:22.563Z,28.80
2018-07-26T17:26:51.598Z,28.80
2018-07-26T17:29:20.657Z,29.40
2018-07-26T17:31:49.838Z,29.60
2018-07-26T17:36:47.605Z,29.80
2018-07-26T17:39:16.636Z,29.30
2018-07-26T17:41:45.667Z,29.80
2018-07-26T17:44:15.036Z,29.30
2018-07-26T17:46:44.392Z,29.50
2018-07-26T17:54:10.796Z,29.60
2018-07-26T17:56:39.904Z,29.20
2018-07-26T17:59:09.068Z,29.40
2018-07-26T18:01:38.102Z,30.00
2018-07-26T18:04:14.184Z,30.40
2018-07-26T18:06:47.674Z,30.20
2018-07-26T18:09:31.649Z,30.70
2018-07-26T18:12:02.360Z,30.80
2018-07-26T18:14:33.582Z,31.20
2018-07-26T18:17:02.622Z,31.30
2018-07-26T18:19:31.783Z,31.30
2018-07-26T18:22:01.325Z,31.70
2018-07-26T18:24:30.427Z,31.80
2018-07-26T18:26:59.454Z,31.80
2018-07-26T18:29:28.459Z,31.80
2018-07-26T18:31:57.708Z,32.40
2018-07-26T18:34:27.042Z,32.10
2018-07-26T18:36:56.621Z,32.40
2018-07-26T18:39:25.990Z,32.50
2018-07-26T18:41:55.301Z,32.80
2018-07-26T18:44:24.352Z,33.30
2018-07-26T18:46:53.340Z,33.50
2018-07-26T18:49:22.401Z,34.00
2018-07-26T18:51:51.567Z,34.10
2018-07-26T18:54:20.603Z,34.40
2018-07-26T18:56:49.950Z,34.70
2018-07-26T18:59:18.972Z,34.70
2018-07-26T19:01:47.967Z,34.60
2018-07-26T19:04:17.334Z,35.00
2018-07-26T19:06:46.683Z,35.30
2018-07-26T19:09:15.695Z,35.50
2018-07-26T19:11:44.699Z,35.60
2018-07-26T19:14:14.203Z,36.00
2018-07-26T19:16:43.255Z,36.20
2018-07-26T19:19:12.352Z,36.50
2018-07-26T19:21:41.691Z,36.40
2018-07-26T19:24:10.748Z,36.10
2018-07-26T19:26:39.736Z,36.30
2018-07-26T19:29:08.778Z,36.40
2018-07-26T19:31:37.828Z,36.40
2018-07-26T19:34:06.880Z,36.60
2018-07-26T19:36:35.901Z,36.90
2018-07-26T19:39:08.382Z,36.70
2018-07-26T19:41:37.402Z,37.10
2018-07-26T19:44:06.452Z,36.90
2018-07-26T19:46:35.615Z,37.20
2018-07-26T19:49:04.660Z,37.20
2018-07-26T19:51:33.661Z,37.30
2018-07-26T19:54:03.153Z,37.80
2018-07-26T19:56:32.329Z,37.30
2018-07-26T20:01:30.506Z,37.40
2018-07-26T20:03:59.593Z,37.20
2018-07-26T20:06:28.707Z,37.50
2018-07-26T20:08:57.737Z,37.50
2018-07-26T20:11:26.718Z,37.40
2018-07-26T20:13:55.765Z,37.50
2018-07-26T20:16:24.796Z,37.40
2018-07-26T20:18:53.811Z,37.80
2018-07-26T20:21:22.774Z,37.70
2018-07-26T20:23:51.808Z,37.80
2018-07-26T20:26:20.803Z,37.80
2018-07-26T20:28:49.842Z,38.10
2018-07-26T20:31:18.856Z,38.10
2018-07-26T20:33:47.882Z,38.10
2018-07-26T20:36:17.184Z,38.50
2018-07-26T20:38:46.318Z,38.70
2018-07-26T20:41:15.478Z,38.60
2018-07-26T20:43:44.566Z,38.60
2018-07-26T20:46:13.614Z,38.80
2018-07-26T20:48:42.926Z,38.70
2018-07-26T20:51:12.084Z,38.90
2018-07-26T20:53:41.484Z,39.00
2018-07-26T20:56:10.467Z,39.10
2018-07-26T20:58:39.524Z,39.10
2018-07-26T21:01:08.541Z,39.40
2018-07-26T21:03:37.571Z,39.60
2018-07-26T21:06:06.574Z,39.80
2018-07-26T21:08:35.591Z,39.70
2018-07-26T21:11:05.499Z,39.80
2018-07-26T21:13:34.527Z,39.80
2018-07-26T21:16:03.582Z,40.10
2018-07-26T21:18:32.613Z,40.40
2018-07-26T21:21:01.600Z,40.30
2018-07-26T21:23:30.735Z,40.50
2018-07-26T21:25:59.772Z,40.60
2018-07-26T21:28:29.124Z,40.80
2018-07-26T21:30:58.168Z,41.00
2018-07-26T21:33:27.165Z,41.10
2018-07-26T21:35:56.188Z,41.30
2018-07-26T21:38:25.163Z,41.50
2018-07-26T21:40:54.249Z,41.80
2018-07-26T21:43:23.280Z,41.90
2018-07-26T21:45:52.392Z,42.10
2018-07-26T21:48:21.415Z,42.50
2018-07-26T21:50:50.444Z,42.50
2018-07-26T21:53:19.867Z,42.80
2018-07-26T21:55:48.895Z,43.70
2018-07-26T21:58:17.922Z,43.30
2018-07-26T22:00:52.338Z,43.50
2018-07-26T22:03:20.774Z,43.70
2018-07-26T22:05:49.804Z,43.90
2018-07-26T22:08:18.262Z,44.10
2018-07-26T22:10:48.118Z,44.20
2018-07-26T22:13:17.133Z,44.40
2018-07-26T22:15:46.003Z,44.50
2018-07-26T22:18:14.996Z,44.50
2018-07-26T22:20:43.505Z,44.90
2018-07-26T22:23:11.995Z,44.70
2018-07-26T22:25:45.424Z,45.10
2018-07-26T22:28:13.872Z,45.10
2018-07-26T22:30:42.396Z,45.20
2018-07-26T22:33:11.074Z,45.20
2018-07-26T22:35:39.887Z,45.20
2018-07-26T22:38:08.390Z,45.20
2018-07-26T22:40:36.880Z,45.40
2018-07-26T22:43:05.490Z,45.50
2018-07-26T22:45:33.968Z,45.60
2018-07-26T22:48:02.411Z,45.80
2018-07-26T22:50:31.177Z,45.90
2018-07-26T22:52:59.682Z,45.80
2018-07-26T22:55:28.360Z,46.00
2018-07-26T22:57:57.143Z,46.00
2018-07-26T23:00:25.631Z,46.20
2018-07-26T23:02:54.150Z,46.60
2018-07-26T23:05:22.659Z,46.80
2018-07-26T23:07:51.264Z,46.90
2018-07-26T23:10:19.838Z,46.90
2018-07-26T23:12:48.346Z,47.20
2018-07-26T23:15:16.888Z,47.40
2018-07-26T23:17:45.527Z,47.50
2018-07-26T23:20:13.973Z,47.60
2018-07-26T23:22:42.472Z,48.00
2018-07-26T23:25:10.907Z,48.30
2018-07-26T23:27:39.342Z,48.40
2018-07-26T23:30:12.935Z,48.60
2018-07-26T23:32:41.404Z,49.00
2018-07-26T23:35:10.170Z,49.20
2018-07-26T23:37:38.631Z,49.40
2018-07-26T23:40:08.669Z,49.60
2018-07-26T23:42:37.315Z,49.90
2018-07-26T23:45:06.048Z,50.10
2018-07-26T23:47:34.531Z,50.20
2018-07-26T23:50:03.748Z,50.60
2018-07-26T23:52:32.225Z,50.70
2018-07-26T23:55:00.760Z,51.00
2018-07-26T23:57:29.214Z,51.30
2018-07-26T23:59:57.718Z,51.30
